Time;durP1;ratioP1;P1;durP2;ratioP2;P2;SDS_P1;SDS_P2;PMS_P1;PMS_P2;Temp;Humidity;BMP_temperature;BMP_pressure;BME280_temperature;BME280_humidity;BME280_pressure;Samples;Min_cycle;Max_cycle;Signal;HPM_P1;HPM_P2
2024/01/26 00:00:03;;;;;;;53.75;21.35;;;6.10;99.90;;;;;;5026609;28;20049;-86
2024/01/26 00:02:37;;;;;;;46.67;20.73;;;6.10;99.90;;;;;;5011028;28;20045;-86
2024/01/26 00:05:05;;;;;;;52.47;22.30;;;6.10;99.90;;;;;;5026870;28;20690;-86
2024/01/26 00:07:32;;;;;;;62.70;22.95;;;6.20;99.90;;;;;;5011696;28;20405;-86
2024/01/26 00:09:59;;;;;;;56.88;23.65;;;6.20;99.90;;;;;;5008557;28;20664;-86
2024/01/26 00:12:26;;;;;;;55.97;22.50;;;6.30;99.90;;;;;;5011313;28;20047;-85
2024/01/26 00:14:54;;;;;;;63.55;24.23;;;6.30;99.90;;;;;;5013006;28;20065;-89
2024/01/26 00:17:20;;;;;;;61.15;22.63;;;6.30;99.90;;;;;;4992716;28;20260;-89
2024/01/26 00:19:47;;;;;;;63.00;22.80;;;6.30;99.90;;;;;;4995432;28;20045;-88
2024/01/26 00:22:14;;;;;;;57.60;22.42;;;6.30;99.90;;;;;;4989509;28;20827;-88
2024/01/26 00:24:41;;;;;;;62.88;23.98;;;6.30;99.90;;;;;;4989750;28;20049;-87
2024/01/26 00:27:08;;;;;;;48.42;24.40;;;6.30;99.90;;;;;;4988539;28;20376;-87
2024/01/26 00:29:35;;;;;;;64.28;25.88;;;6.30;99.90;;;;;;4995516;28;20128;-87
2024/01/26 00:32:02;;;;;;;43.53;23.17;;;6.40;99.90;;;;;;4989626;28;20041;-86
2024/01/26 00:34:29;;;;;;;47.00;22.08;;;6.40;99.90;;;;;;5007807;28;20493;-86
2024/01/26 00:36:59;;;;;;;50.53;24.38;;;6.50;99.90;;;;;;5014515;28;20056;-86
2024/01/26 00:39:26;;;;;;;49.38;22.80;;;6.50;99.90;;;;;;4994861;28;20160;-88
2024/01/26 00:41:53;;;;;;;53.90;21.77;;;6.50;99.90;;;;;;5003543;28;20125;-86
2024/01/26 00:44:20;;;;;;;50.83;24.40;;;6.50;99.90;;;;;;5002415;28;20550;-86
2024/01/26 00:46:47;;;;;;;47.33;21.90;;;6.60;99.90;;;;;;4997254;28;20037;-86
2024/01/26 00:49:14;;;;;;;57.00;24.20;;;6.70;99.90;;;;;;4994714;28;20144;-87
2024/01/26 00:51:41;;;;;;;44.50;21.83;;;6.70;99.90;;;;;;4990896;28;20172;-86
2024/01/26 00:54:08;;;;;;;41.30;22.52;;;6.70;99.90;;;;;;4987369;28;20054;-86
2024/01/26 00:56:35;;;;;;;49.60;23.23;;;6.80;99.90;;;;;;5006680;28;20046;-87
2024/01/26 00:59:01;;;;;;;62.42;25.02;;;6.80;99.90;;;;;;4991788;28;20045;-87
2024/01/26 01:01:28;;;;;;;52.50;24.80;;;7.00;99.90;;;;;;4977932;28;20500;-87
2024/01/26 01:03:56;;;;;;;55.85;24.27;;;6.90;99.90;;;;;;4992317;28;20056;-86
2024/01/26 01:06:22;;;;;;;45.08;23.55;;;7.00;99.90;;;;;;5006293;28;20508;-87
2024/01/26 01:08:49;;;;;;;53.60;25.25;;;7.00;99.90;;;;;;5015412;28;20132;-86
2024/01/26 01:11:16;;;;;;;53.67;24.63;;;7.00;99.90;;;;;;5013807;28;20072;-88
2024/01/26 01:13:43;;;;;;;56.85;24.52;;;7.10;99.90;;;;;;5017806;28;20524;-88
2024/01/26 01:16:12;;;;;;;54.72;25.65;;;7.00;99.90;;;;;;5014518;28;20049;-88
2024/01/26 01:18:40;;;;;;;43.20;24.05;;;7.00;99.90;;;;;;5012296;28;20063;-89
2024/01/26 01:21:07;;;;;;;50.70;24.70;;;7.10;99.90;;;;;;5031621;28;20036;-85
2024/01/26 01:23:34;;;;;;;56.40;24.90;;;7.00;99.90;;;;;;5020789;28;20048;-86
2024/01/26 01:26:01;;;;;;;56.72;24.17;;;7.00;99.90;;;;;;5023257;28;20048;-88
2024/01/26 01:28:28;;;;;;;55.72;24.45;;;7.00;99.90;;;;;;5038817;28;20685;-88
2024/01/26 01:30:55;;;;;;;53.85;23.75;;;7.00;99.90;;;;;;5016416;28;20056;-87
2024/01/26 01:33:22;;;;;;;46.58;23.45;;;7.00;99.90;;;;;;5017177;28;21298;-88
2024/01/26 01:35:49;;;;;;;49.97;23.83;;;7.00;99.90;;;;;;5015918;28;20052;-86
2024/01/26 01:38:16;;;;;;;48.80;24.65;;;7.00;99.90;;;;;;4999936;28;20100;-86
2024/01/26 01:40:44;;;;;;;51.50;23.98;;;7.00;99.90;;;;;;5014673;28;20049;-87
2024/01/26 01:43:17;;;;;;;55.00;24.88;;;7.00;99.90;;;;;;5000831;28;20472;-87
2024/01/26 01:45:43;;;;;;;70.82;26.67;;;7.00;99.90;;;;;;5015237;28;20390;-87
2024/01/26 01:48:11;;;;;;;53.83;25.48;;;7.00;99.90;;;;;;5016754;28;20427;-86
2024/01/26 01:50:38;;;;;;;64.07;25.92;;;7.00;99.90;;;;;;5020762;28;20045;-89
2024/01/26 01:53:08;;;;;;;68.22;26.65;;;7.10;99.90;;;;;;5024623;28;20247;-87
2024/01/26 01:55:36;;;;;;;69.55;28.02;;;7.10;99.90;;;;;;5034938;28;20385;-88
2024/01/26 01:58:03;;;;;;;63.60;26.52;;;7.10;99.90;;;;;;5002732;28;20503;-88
2024/01/26 02:00:32;;;;;;;64.32;26.83;;;7.20;99.90;;;;;;5006804;28;20128;-87
2024/01/26 02:02:59;;;;;;;68.93;26.02;;;7.20;99.90;;;;;;5032311;28;20107;-86
2024/01/26 02:05:26;;;;;;;65.03;27.35;;;7.20;99.90;;;;;;5019643;28;20476;-88
2024/01/26 02:07:53;;;;;;;51.20;26.05;;;7.20;99.90;;;;;;5023747;28;20106;-87
2024/01/26 02:10:21;;;;;;;56.38;27.67;;;7.20;99.90;;;;;;5016867;28;20041;-87
2024/01/26 02:12:47;;;;;;;61.03;26.15;;;7.30;99.90;;;;;;4998377;28;20615;-87
2024/01/26 02:15:14;;;;;;;55.30;28.45;;;7.40;99.90;;;;;;4990271;28;20423;-87
2024/01/26 02:17:41;;;;;;;55.50;28.38;;;7.40;99.90;;;;;;5017776;28;20497;-88
2024/01/26 02:20:09;;;;;;;62.65;29.45;;;7.50;99.90;;;;;;5010453;28;20508;-84
2024/01/26 02:22:37;;;;;;;56.03;28.45;;;7.50;99.90;;;;;;5012095;28;20047;-87
2024/01/26 02:25:05;;;;;;;60.67;30.05;;;7.50;99.90;;;;;;5013357;28;20059;-86
2024/01/26 02:27:33;;;;;;;59.08;27.20;;;7.50;99.90;;;;;;5013959;28;20065;-87
2024/01/26 02:30:01;;;;;;;56.08;28.13;;;7.50;99.90;;;;;;5015969;28;20520;-87
2024/01/26 02:32:28;;;;;;;61.50;26.92;;;7.60;99.90;;;;;;5004629;28;21307;-88
2024/01/26 02:34:55;;;;;;;50.40;26.90;;;7.60;99.90;;;;;;5007783;28;20045;-87
2024/01/26 02:37:23;;;;;;;50.20;26.50;;;7.70;99.90;;;;;;5020902;28;20069;-88
2024/01/26 02:39:50;;;;;;;47.75;25.75;;;7.70;99.90;;;;;;5011364;28;20040;-88
2024/01/26 02:42:17;;;;;;;31.63;21.15;;;7.80;99.90;;;;;;5014744;28;20048;-88
2024/01/26 02:44:43;;;;;;;36.65;21.35;;;7.90;99.90;;;;;;5011815;28;20052;-88
2024/01/26 02:47:13;;;;;;;26.13;19.45;;;8.00;99.90;;;;;;5025880;28;20049;-87
2024/01/26 02:49:44;;;;;;;23.50;16.55;;;8.20;99.90;;;;;;5014908;28;20439;-87
2024/01/26 02:52:11;;;;;;;20.20;16.75;;;8.30;99.90;;;;;;5013591;28;20041;-88
2024/01/26 02:54:38;;;;;;;23.30;18.15;;;8.40;99.90;;;;;;5034773;28;20049;-88
2024/01/26 02:57:05;;;;;;;21.95;18.55;;;8.50;99.90;;;;;;5016127;28;20052;-87
2024/01/26 02:59:32;;;;;;;21.58;17.63;;;8.50;99.90;;;;;;4998299;28;20042;-89
2024/01/26 03:01:59;;;;;;;20.63;16.88;;;8.50;99.90;;;;;;4994999;28;20063;-89
2024/01/26 03:04:26;;;;;;;21.08;16.30;;;8.50;99.90;;;;;;5006957;28;20065;-87
2024/01/26 03:06:55;;;;;;;21.17;16.08;;;8.60;99.90;;;;;;5025780;28;20045;-88
2024/01/26 03:09:23;;;;;;;20.58;16.38;;;8.60;99.90;;;;;;5024307;28;20559;-87
2024/01/26 03:11:50;;;;;;;21.90;17.50;;;8.70;99.90;;;;;;5003705;28;20037;-87
2024/01/26 03:14:18;;;;;;;22.73;17.30;;;8.70;99.90;;;;;;4993966;28;20037;-87
2024/01/26 03:16:45;;;;;;;21.17;16.80;;;8.60;99.90;;;;;;4995986;28;20061;-88
2024/01/26 03:19:12;;;;;;;20.83;17.38;;;8.70;99.90;;;;;;5001297;28;20115;-87
2024/01/26 03:21:41;;;;;;;19.20;16.60;;;8.70;99.90;;;;;;5000457;28;20060;-88
2024/01/26 03:24:08;;;;;;;21.10;16.67;;;8.70;99.90;;;;;;4999038;28;20049;-89
2024/01/26 03:26:37;;;;;;;20.90;16.75;;;8.80;99.90;;;;;;4986574;28;20045;-87
2024/01/26 03:29:06;;;;;;;25.10;16.63;;;8.70;99.90;;;;;;4995569;28;20050;-87
2024/01/26 03:31:33;;;;;;;20.48;17.13;;;8.70;99.90;;;;;;4978097;28;20125;-88
2024/01/26 03:34:01;;;;;;;22.65;18.05;;;8.70;99.90;;;;;;4990231;28;20480;-88
2024/01/26 03:36:54;;;;;;;17.27;15.57;;;8.80;99.90;;;;;;5001159;28;20492;-88
2024/01/26 03:39:21;;;;;;;22.40;16.95;;;8.70;99.90;;;;;;5005116;28;20073;-88
2024/01/26 03:41:54;;;;;;;21.42;16.85;;;8.80;99.90;;;;;;5013629;28;20078;-87
2024/01/26 03:44:24;;;;;;;21.23;17.85;;;8.70;99.90;;;;;;4990428;28;20084;-87
2024/01/26 03:46:51;;;;;;;20.98;16.33;;;8.70;99.90;;;;;;5012612;28;20514;-87
2024/01/26 03:49:24;;;;;;;21.73;16.42;;;8.80;99.90;;;;;;5013787;28;20040;-87
2024/01/26 03:51:56;;;;;;;17.40;15.02;;;8.80;99.90;;;;;;5000146;28;20111;-88
2024/01/26 03:54:33;;;;;;;19.83;15.85;;;8.80;99.90;;;;;;4996706;28;21507;-87
2024/01/26 03:57:05;;;;;;;19.33;15.60;;;8.80;99.90;;;;;;4991291;28;20045;-87
2024/01/26 03:59:57;;;;;;;15.27;13.60;;;8.80;99.90;;;;;;5001229;28;20040;-88
2024/01/26 04:02:24;;;;;;;17.02;14.27;;;8.90;99.90;;;;;;4991632;28;20037;-87
2024/01/26 04:04:51;;;;;;;16.05;14.55;;;8.90;99.90;;;;;;4984982;28;20045;-87
2024/01/26 04:07:18;;;;;;;18.10;16.17;;;8.90;99.90;;;;;;5010566;28;20338;-88
2024/01/26 04:09:48;;;;;;;18.38;16.38;;;8.90;99.90;;;;;;5015841;28;20064;-87
2024/01/26 04:12:15;;;;;;;16.73;14.82;;;8.90;99.90;;;;;;5013554;28;20068;-89
2024/01/26 04:14:58;;;;;;;20.23;15.63;;;8.90;99.90;;;;;;5007967;28;20038;-88
2024/01/26 04:17:25;;;;;;;17.48;13.98;;;9.00;99.90;;;;;;5013142;28;20658;-88
2024/01/26 04:19:55;;;;;;;15.35;13.43;;;9.00;99.90;;;;;;5017588;28;20049;-88
2024/01/26 04:22:28;;;;;;;15.38;13.88;;;9.10;99.90;;;;;;5012701;28;20127;-87
2024/01/26 04:24:55;;;;;;;17.90;14.32;;;9.00;99.90;;;;;;5009232;28;20321;-87
2024/01/26 04:27:25;;;;;;;18.88;14.30;;;9.00;99.90;;;;;;5009366;28;20620;-88
2024/01/26 04:30:00;;;;;;;18.13;15.13;;;9.00;99.90;;;;;;5015307;28;20456;-87
2024/01/26 04:33:04;;;;;;;16.80;13.95;;;9.00;99.90;;;;;;5004661;28;20033;-88
2024/01/26 04:35:31;;;;;;;20.73;15.60;;;9.00;99.90;;;;;;5008149;28;20064;-88
2024/01/26 04:38:08;;;;;;;21.33;15.15;;;9.00;99.90;;;;;;5020694;28;20079;-88
2024/01/26 04:40:44;;;;;;;22.42;16.48;;;9.00;99.90;;;;;;5032911;28;20114;-88
2024/01/26 04:43:12;;;;;;;28.13;18.25;;;9.00;99.90;;;;;;4997253;28;20142;-87
2024/01/26 04:46:05;;;;;;;23.05;16.90;;;8.90;99.90;;;;;;5011408;28;20045;-87
2024/01/26 04:48:35;;;;;;;24.27;16.48;;;8.90;99.90;;;;;;5018133;28;20057;-89
2024/01/26 04:51:03;;;;;;;22.40;17.30;;;8.90;99.90;;;;;;5004755;28;20033;-89
2024/01/26 04:53:30;;;;;;;22.75;16.88;;;8.90;99.90;;;;;;5001467;28;20105;-87
2024/01/26 04:56:23;;;;;;;22.80;15.75;;;8.90;99.90;;;;;;5013663;28;20037;-88
2024/01/26 04:58:53;;;;;;;27.00;16.45;;;8.90;99.90;;;;;;5037586;28;20229;-89
2024/01/26 05:01:29;;;;;;;23.52;15.50;;;8.90;99.90;;;;;;5014787;28;20040;-88
2024/01/26 05:04:06;;;;;;;24.67;16.52;;;9.00;99.90;;;;;;5019662;28;20523;-86
2024/01/26 05:06:42;;;;;;;22.80;15.68;;;9.00;99.90;;;;;;5001875;28;20343;-86
2024/01/26 05:09:13;;;;;;;22.50;15.48;;;9.00;99.90;;;;;;5011258;28;20099;-87
2024/01/26 05:11:46;;;;;;;22.60;14.30;;;9.00;99.90;;;;;;5012472;28;20872;-87
2024/01/26 05:14:16;;;;;;;21.45;14.40;;;9.00;99.90;;;;;;4997575;28;20475;-85
2024/01/26 05:16:43;;;;;;;19.20;15.65;;;9.00;99.90;;;;;;5010437;28;20056;-89
2024/01/26 05:19:10;;;;;;;23.65;16.25;;;9.00;99.90;;;;;;5002177;28;20562;-88
2024/01/26 05:21:40;;;;;;;19.65;15.15;;;8.90;99.90;;;;;;5008013;28;20255;-88
2024/01/26 05:24:07;;;;;;;16.50;14.43;;;9.00;99.90;;;;;;5012537;28;20075;-88
2024/01/26 05:26:38;;;;;;;20.23;14.48;;;9.00;99.90;;;;;;5002234;28;20108;-88
2024/01/26 05:29:06;;;;;;;16.48;12.95;;;9.00;99.90;;;;;;4994175;28;20237;-88
2024/01/26 05:31:34;;;;;;;17.58;12.30;;;9.00;99.90;;;;;;4988202;28;20037;-88
2024/01/26 05:34:01;;;;;;;14.00;11.25;;;9.00;99.90;;;;;;4999752;28;20286;-89
2024/01/26 05:36:29;;;;;;;16.25;11.60;;;9.00;99.90;;;;;;5015874;28;20045;-88
2024/01/26 05:38:56;;;;;;;17.40;11.90;;;9.00;99.90;;;;;;5032109;28;20043;-88
2024/01/26 05:41:23;;;;;;;16.52;11.60;;;9.10;99.90;;;;;;5029806;28;20080;-89
2024/01/26 05:43:50;;;;;;;19.05;12.20;;;9.20;99.90;;;;;;5021924;28;20105;-89
2024/01/26 05:46:17;;;;;;;14.93;10.80;;;9.20;99.90;;;;;;5024517;28;20045;-88
2024/01/26 05:48:44;;;;;;;14.80;10.60;;;9.20;99.90;;;;;;5015064;28;20053;-88
2024/01/26 05:51:13;;;;;;;13.68;10.25;;;9.20;99.90;;;;;;5028986;28;20056;-89
2024/01/26 05:53:40;;;;;;;13.80;9.80;;;9.20;99.90;;;;;;5017130;28;20041;-88
2024/01/26 05:56:07;;;;;;;13.95;8.32;;;9.20;99.90;;;;;;5033949;28;20093;-89
2024/01/26 05:58:34;;;;;;;13.65;9.45;;;9.20;99.90;;;;;;5027051;28;20057;-89
2024/01/26 06:01:01;;;;;;;11.73;8.88;;;9.20;99.90;;;;;;4995088;28;20065;-87
2024/01/26 06:03:28;;;;;;;15.85;9.18;;;9.30;99.90;;;;;;5012761;28;20052;-89
2024/01/26 06:05:55;;;;;;;11.02;7.85;;;9.30;99.90;;;;;;5009735;28;20132;-89
2024/01/26 06:08:22;;;;;;;24.55;9.35;;;9.20;99.90;;;;;;4995230;28;20617;-89
2024/01/26 06:10:51;;;;;;;14.50;10.10;;;9.20;99.90;;;;;;4996827;28;20421;-89
2024/01/26 06:13:19;;;;;;;13.93;10.45;;;9.20;99.90;;;;;;4996454;28;20215;-89
2024/01/26 06:15:47;;;;;;;14.65;11.85;;;9.10;99.90;;;;;;4975758;28;20052;-89
2024/01/26 06:18:14;;;;;;;12.27;9.50;;;9.20;99.90;;;;;;4981486;28;20809;-87
2024/01/26 06:20:41;;;;;;;14.07;10.30;;;9.20;99.90;;;;;;5012426;28;20069;-88
2024/01/26 06:23:09;;;;;;;13.82;10.00;;;9.20;99.90;;;;;;4998280;28;20045;-88
2024/01/26 06:25:36;;;;;;;14.57;10.27;;;9.20;99.90;;;;;;4997915;28;20057;-89
2024/01/26 06:28:03;;;;;;;13.73;11.00;;;9.30;99.90;;;;;;4997196;28;20188;-88
2024/01/26 06:30:30;;;;;;;15.73;10.85;;;9.30;99.90;;;;;;4995636;28;20042;-89
2024/01/26 06:32:56;;;;;;;14.93;10.23;;;9.30;99.90;;;;;;4996480;28;20065;-89
2024/01/26 06:35:24;;;;;;;16.13;10.90;;;9.30;99.90;;;;;;4995669;28;20136;-90
2024/01/26 06:37:50;;;;;;;16.00;11.40;;;9.30;99.90;;;;;;4981551;28;20132;-89
2024/01/26 06:40:17;;;;;;;16.67;12.18;;;9.30;99.90;;;;;;4980472;28;20350;-89
2024/01/26 06:42:44;;;;;;;19.08;11.73;;;9.30;99.90;;;;;;5002367;28;20258;-87
2024/01/26 06:45:13;;;;;;;22.70;14.38;;;9.40;99.90;;;;;;5007606;28;20112;-88
2024/01/26 06:47:40;;;;;;;19.48;13.35;;;9.40;99.90;;;;;;4996497;28;20351;-89
2024/01/26 06:50:08;;;;;;;21.20;14.40;;;9.30;99.90;;;;;;4981372;28;20137;-89
2024/01/26 06:52:39;;;;;;;20.10;12.73;;;9.40;99.90;;;;;;5000168;28;20045;-90
2024/01/26 06:55:07;;;;;;;18.48;12.82;;;9.40;99.90;;;;;;5006860;28;20080;-89
2024/01/26 06:57:34;;;;;;;17.88;11.80;;;9.30;99.90;;;;;;4987479;28;20359;-90
2024/01/26 07:00:03;;;;;;;18.38;11.57;;;9.40;99.90;;;;;;4993708;28;20163;-89
2024/01/26 07:02:32;;;;;;;16.92;12.23;;;9.40;99.90;;;;;;4977110;28;20045;-86
2024/01/26 07:05:01;;;;;;;15.13;11.77;;;9.50;99.90;;;;;;4988680;28;20067;-87
2024/01/26 07:07:28;;;;;;;18.02;13.27;;;9.40;99.90;;;;;;4995647;28;20037;-87
2024/01/26 07:09:55;;;;;;;18.00;12.32;;;9.40;99.90;;;;;;4996594;28;20049;-87
2024/01/26 07:12:22;;;;;;;19.35;13.18;;;9.50;99.90;;;;;;4998308;28;20053;-87
2024/01/26 07:14:48;;;;;;;13.82;11.98;;;9.60;99.90;;;;;;4975212;28;20264;-85
2024/01/26 07:17:16;;;;;;;16.45;13.00;;;9.50;99.90;;;;;;5022069;28;20173;-88
2024/01/26 07:19:43;;;;;;;15.30;11.93;;;9.60;99.90;;;;;;5010366;28;20176;-89
2024/01/26 07:22:10;;;;;;;14.40;12.90;;;9.50;99.90;;;;;;4998440;28;20473;-88
2024/01/26 07:24:37;;;;;;;15.32;12.05;;;9.60;99.90;;;;;;5017546;28;20049;-89
2024/01/26 07:27:04;;;;;;;13.57;10.95;;;9.50;99.90;;;;;;5030307;28;20240;-89
2024/01/26 07:29:32;;;;;;;15.18;13.60;;;9.50;99.90;;;;;;5011214;28;20034;-89
2024/01/26 07:32:02;;;;;;;15.30;13.70;;;9.50;99.90;;;;;;5045524;28;20052;-93
2024/01/26 07:34:29;;;;;;;15.00;12.02;;;9.50;99.90;;;;;;5032697;28;20047;-90
2024/01/26 07:36:58;;;;;;;11.52;10.45;;;9.50;99.90;;;;;;5042391;28;20056;-88
2024/01/26 07:39:26;;;;;;;11.20;10.05;;;9.50;99.90;;;;;;5033179;28;20088;-90
2024/01/26 07:41:53;;;;;;;13.70;12.40;;;9.50;99.90;;;;;;5034118;28;20040;-89
2024/01/26 07:44:21;;;;;;;13.07;11.77;;;9.60;99.90;;;;;;5041134;28;20040;-91
2024/01/26 07:46:48;;;;;;;12.23;11.10;;;9.50;99.90;;;;;;5051496;28;20081;-87
2024/01/26 07:49:14;;;;;;;13.07;11.88;;;9.50;99.90;;;;;;5015455;28;20045;-90
2024/01/26 07:51:43;;;;;;;12.73;11.25;;;9.50;99.90;;;;;;5019084;28;20044;-87
2024/01/26 07:54:10;;;;;;;13.88;12.23;;;9.50;99.90;;;;;;5010167;28;20604;-88
2024/01/26 07:56:37;;;;;;;14.05;12.65;;;9.60;99.90;;;;;;5012816;28;20440;-88
2024/01/26 07:59:04;;;;;;;13.25;11.95;;;9.60;99.90;;;;;;5021120;28;20037;-90
2024/01/26 08:01:31;;;;;;;13.45;12.23;;;9.60;99.90;;;;;;5000905;28;20045;-90
2024/01/26 08:03:59;;;;;;;12.35;11.25;;;9.70;99.90;;;;;;5019662;28;20041;-89
2024/01/26 08:06:26;;;;;;;12.90;11.80;;;9.70;99.90;;;;;;5045125;28;20739;-90
2024/01/26 08:08:54;;;;;;;15.52;14.02;;;9.70;99.90;;;;;;5037594;28;20098;-88
2024/01/26 08:11:21;;;;;;;15.13;13.82;;;9.70;99.90;;;;;;5007334;28;22009;-91
2024/01/26 08:13:49;;;;;;;13.73;12.25;;;9.80;99.90;;;;;;5001616;28;20882;-90
2024/01/26 08:16:22;;;;;;;14.25;11.55;;;9.80;99.90;;;;;;5009775;28;20033;-91
2024/01/26 08:18:50;;;;;;;15.13;12.57;;;9.70;99.90;;;;;;5018988;28;20593;-91
2024/01/26 08:21:17;;;;;;;13.52;12.02;;;9.70;99.90;;;;;;4999352;28;20167;-89
2024/01/26 08:24:01;;;;;;;13.13;11.45;;;9.70;99.90;;;;;;5011589;28;20056;-89
2024/01/26 08:27:36;;;;;;;12.57;10.15;;;9.60;99.90;;;;;;5011733;28;20041;-89
2024/01/26 08:31:29;;;;;;;9.68;8.55;;;9.60;99.90;;;;;;4985399;28;20053;-91
2024/01/26 08:33:57;;;;;;;10.77;8.30;;;9.60;99.90;;;;;;5105436;23;20132;-80
2024/01/26 08:36:25;;;;;;;9.30;8.50;;;9.60;99.90;;;;;;5017233;28;20045;-80
2024/01/26 08:38:54;;;;;;;9.45;8.50;;;9.60;99.90;;;;;;4999889;28;20055;-78
2024/01/26 08:41:21;;;;;;;8.65;7.85;;;9.70;99.90;;;;;;5012952;28;20037;-78
2024/01/26 08:43:48;;;;;;;10.55;9.10;;;9.70;99.90;;;;;;5008804;28;20053;-78
2024/01/26 08:46:15;;;;;;;11.63;9.93;;;9.80;99.90;;;;;;5012407;28;20052;-77
2024/01/26 08:48:42;;;;;;;10.70;9.60;;;9.80;99.90;;;;;;5015564;28;20041;-79
2024/01/26 08:51:08;;;;;;;9.68;8.75;;;9.80;99.90;;;;;;5014121;28;20044;-78
2024/01/26 08:53:35;;;;;;;8.65;7.75;;;9.80;99.90;;;;;;4998966;28;21217;-79
2024/01/26 08:56:06;;;;;;;9.77;8.23;;;9.80;99.90;;;;;;5027853;28;20046;-78
2024/01/26 08:58:32;;;;;;;9.07;7.82;;;9.80;99.90;;;;;;5011553;28;20056;-78
2024/01/26 09:00:59;;;;;;;9.82;8.00;;;9.80;99.90;;;;;;5013456;28;20117;-79
2024/01/26 09:03:27;;;;;;;13.38;8.93;;;9.90;99.90;;;;;;5017084;28;20078;-78
2024/01/26 09:05:56;;;;;;;7.00;5.93;;;9.90;99.90;;;;;;5009647;28;20048;-76
2024/01/26 09:08:23;;;;;;;6.88;5.85;;;10.00;99.90;;;;;;4997709;28;20049;-77
2024/01/26 09:10:49;;;;;;;8.02;6.68;;;10.10;99.90;;;;;;5024857;28;20116;-81
2024/01/26 09:13:18;;;;;;;6.40;5.10;;;10.10;99.90;;;;;;5006588;28;20569;-80
2024/01/26 09:15:45;;;;;;;5.10;4.13;;;10.10;99.90;;;;;;5012645;28;20033;-82
2024/01/26 09:18:12;;;;;;;9.95;5.90;;;10.10;99.90;;;;;;4998843;28;21855;-79
2024/01/26 09:20:39;;;;;;;4.75;4.32;;;10.00;99.90;;;;;;4995529;28;20076;-80
2024/01/26 09:23:06;;;;;;;6.30;5.68;;;10.00;99.90;;;;;;5015491;28;20037;-81
2024/01/26 09:25:35;;;;;;;6.13;4.80;;;10.00;99.90;;;;;;5016541;28;20045;-80
2024/01/26 09:28:02;;;;;;;40.17;21.65;;;10.00;99.90;;;;;;5005395;28;20130;-80
2024/01/26 09:30:29;;;;;;;6.32;5.57;;;10.00;99.90;;;;;;5000678;28;20045;-80
2024/01/26 09:32:56;;;;;;;8.27;7.45;;;10.00;99.90;;;;;;5002232;28;20048;-79
2024/01/26 09:35:23;;;;;;;11.20;8.88;;;10.00;99.90;;;;;;4998821;28;20120;-79
2024/01/26 09:37:50;;;;;;;3.88;3.42;;;10.00;99.90;;;;;;5000694;28;20084;-78
2024/01/26 09:40:19;;;;;;;6.55;5.95;;;10.00;99.90;;;;;;4994551;28;20609;-78
2024/01/26 09:42:46;;;;;;;5.30;4.55;;;10.00;99.90;;;;;;5030675;28;20049;-79
2024/01/26 09:45:13;;;;;;;5.38;4.18;;;10.00;99.90;;;;;;4992684;28;20052;-79
2024/01/26 09:47:41;;;;;;;4.55;3.70;;;10.00;99.90;;;;;;5013511;28;20064;-78
2024/01/26 09:50:11;;;;;;;4.80;3.53;;;10.00;99.90;;;;;;5014673;28;20539;-80
2024/01/26 09:52:38;;;;;;;4.57;3.75;;;10.00;99.90;;;;;;5008161;28;20552;-80
2024/01/26 09:55:05;;;;;;;6.78;5.15;;;10.00;99.90;;;;;;5023496;28;20048;-80
2024/01/26 09:57:32;;;;;;;11.73;5.82;;;10.00;99.90;;;;;;5008105;28;20037;-79
2024/01/26 09:59:59;;;;;;;3.85;3.42;;;10.00;99.90;;;;;;5011753;28;20110;-80
2024/01/26 10:02:26;;;;;;;6.53;3.97;;;10.10;99.90;;;;;;4984595;28;20037;-79
2024/01/26 10:04:54;;;;;;;3.10;2.80;;;10.20;99.90;;;;;;4993257;28;20076;-78
2024/01/26 10:07:21;;;;;;;3.13;2.65;;;10.30;99.90;;;;;;4993999;28;20049;-78
2024/01/26 10:09:48;;;;;;;6.03;4.45;;;10.30;99.90;;;;;;5018318;28;20064;-79
2024/01/26 10:12:19;;;;;;;4.40;3.50;;;10.20;99.90;;;;;;5012629;28;20979;-78
2024/01/26 10:14:45;;;;;;;4.28;3.00;;;10.20;99.90;;;;;;5031452;28;20048;-78
2024/01/26 10:17:19;;;;;;;3.90;2.78;;;10.20;99.90;;;;;;5014870;28;20043;-78
2024/01/26 10:19:46;;;;;;;8.27;2.70;;;10.20;99.90;;;;;;5031346;28;20044;-80
2024/01/26 10:22:14;;;;;;;10.43;4.35;;;10.20;99.90;;;;;;5011764;28;20630;-79
2024/01/26 10:24:41;;;;;;;7.45;4.75;;;10.20;99.90;;;;;;5000276;28;20354;-78
2024/01/26 10:27:12;;;;;;;5.85;3.17;;;10.10;99.90;;;;;;5002618;28;20052;-84
2024/01/26 10:29:39;;;;;;;5.07;3.80;;;10.10;99.90;;;;;;4996508;28;20078;-85
2024/01/26 10:32:13;;;;;;;12.38;5.97;;;10.10;99.90;;;;;;5020591;28;20037;-81
2024/01/26 10:34:43;;;;;;;7.13;4.25;;;10.10;99.90;;;;;;5019335;28;20495;-79
2024/01/26 10:37:13;;;;;;;8.98;3.75;;;10.10;99.90;;;;;;5018389;28;20455;-77
2024/01/26 10:39:43;;;;;;;13.00;5.80;;;10.10;99.90;;;;;;5034264;28;20053;-78
2024/01/26 10:42:10;;;;;;;3.65;2.92;;;10.20;99.90;;;;;;5014138;28;20041;-77
2024/01/26 10:44:38;;;;;;;7.20;4.00;;;10.20;99.90;;;;;;5014261;28;20060;-78
2024/01/26 10:47:08;;;;;;;8.10;5.38;;;10.30;99.90;;;;;;5012647;28;20048;-77
2024/01/26 10:49:36;;;;;;;8.30;4.82;;;10.30;99.90;;;;;;5014549;28;20076;-77
2024/01/26 10:52:05;;;;;;;5.88;4.63;;;10.30;99.90;;;;;;5003087;28;20132;-77
2024/01/26 10:54:33;;;;;;;7.10;5.40;;;10.30;99.90;;;;;;5001533;28;20045;-77
2024/01/26 10:57:00;;;;;;;7.78;5.05;;;10.30;99.90;;;;;;5016635;28;20049;-76
2024/01/26 10:59:28;;;;;;;7.13;5.25;;;10.30;99.90;;;;;;5032350;28;20049;-76
2024/01/26 11:01:55;;;;;;;9.60;5.75;;;10.30;99.90;;;;;;4999461;28;20130;-76
2024/01/26 11:04:22;;;;;;;5.38;4.88;;;10.30;99.90;;;;;;5007900;28;20110;-77
2024/01/26 11:06:50;;;;;;;5.82;4.85;;;10.40;99.90;;;;;;5040166;28;20158;-77
2024/01/26 11:09:19;;;;;;;4.25;3.85;;;10.40;99.90;;;;;;5018515;28;20454;-77
2024/01/26 11:11:51;;;;;;;5.35;4.55;;;10.40;99.90;;;;;;4996382;28;20315;-77
2024/01/26 11:14:26;;;;;;;4.85;4.35;;;10.50;99.90;;;;;;5032175;28;20135;-77
2024/01/26 11:16:53;;;;;;;5.10;3.75;;;10.50;99.90;;;;;;5013965;28;20045;-76
2024/01/26 11:19:23;;;;;;;5.47;4.03;;;10.60;99.90;;;;;;5015750;28;20524;-77
2024/01/26 11:21:50;;;;;;;3.30;3.10;;;10.60;99.90;;;;;;5000807;28;20045;-77
2024/01/26 11:24:19;;;;;;;4.18;3.78;;;10.70;99.90;;;;;;5014100;28;20592;-77
2024/01/26 11:26:57;;;;;;;6.40;5.35;;;10.70;99.90;;;;;;5039794;28;20048;-83
2024/01/26 11:29:35;;;;;;;4.88;4.47;;;10.70;99.90;;;;;;5004196;28;20047;-84
2024/01/26 11:32:16;;;;;;;4.40;4.10;;;10.60;99.90;;;;;;5006763;28;20139;-84
2024/01/26 11:34:43;;;;;;;5.00;4.60;;;10.50;99.90;;;;;;5003204;28;20041;-85
2024/01/26 11:37:14;;;;;;;5.53;5.13;;;10.50;99.90;;;;;;5018563;28;20098;-81
2024/01/26 11:39:42;;;;;;;7.10;6.60;;;10.50;99.90;;;;;;5016138;28;20178;-81
2024/01/26 11:42:10;;;;;;;5.53;5.13;;;10.50;99.90;;;;;;5000699;28;20111;-75
2024/01/26 11:44:41;;;;;;;6.90;6.40;;;10.50;99.90;;;;;;5011422;28;20072;-75
2024/01/26 11:47:09;;;;;;;6.50;6.00;;;10.50;99.90;;;;;;5003715;28;20065;-76
2024/01/26 11:49:38;;;;;;;9.43;7.00;;;10.50;99.90;;;;;;4997837;28;20045;-77
2024/01/26 11:52:06;;;;;;;7.90;6.60;;;10.50;99.90;;;;;;5015514;28;20874;-76
2024/01/26 11:54:33;;;;;;;6.93;6.32;;;10.50;99.90;;;;;;4999181;28;20094;-75
2024/01/26 11:57:01;;;;;;;7.50;5.85;;;10.50;99.90;;;;;;5011188;28;20128;-75
2024/01/26 11:59:29;;;;;;;8.82;7.65;;;10.50;99.90;;;;;;5027802;28;20041;-77
2024/01/26 12:01:56;;;;;;;7.03;6.30;;;10.50;99.90;;;;;;5010972;28;20136;-77
2024/01/26 12:04:26;;;;;;;9.75;8.55;;;10.50;99.90;;;;;;5013373;28;20056;-76
2024/01/26 12:06:53;;;;;;;11.00;9.85;;;10.50;99.90;;;;;;5004414;28;20048;-76
2024/01/26 12:09:21;;;;;;;11.82;10.63;;;10.40;99.90;;;;;;4990415;28;20052;-76
2024/01/26 12:11:48;;;;;;;10.98;9.77;;;10.40;99.90;;;;;;5008965;28;20060;-76
2024/01/26 12:14:15;;;;;;;6.53;6.07;;;10.30;99.90;;;;;;5023649;28;20628;-74
2024/01/26 12:16:43;;;;;;;2.78;2.53;;;10.10;99.90;;;;;;4989129;28;20039;-75
2024/01/26 12:19:09;;;;;;;2.28;2.00;;;9.40;99.90;;;;;;5029168;28;20061;-75
2024/01/26 12:21:37;;;;;;;2.83;2.70;;;8.90;99.90;;;;;;4999468;28;20658;-76
2024/01/26 12:24:11;;;;;;;4.65;3.83;;;8.60;99.90;;;;;;5013547;28;20137;-76
2024/01/26 12:26:41;;;;;;;3.88;3.65;;;8.30;99.90;;;;;;4993723;28;20049;-76
2024/01/26 12:29:08;;;;;;;3.67;3.42;;;8.20;99.90;;;;;;5007561;28;20085;-75
2024/01/26 12:31:36;;;;;;;4.05;3.85;;;8.20;99.90;;;;;;5007244;28;20040;-76
2024/01/26 12:34:10;;;;;;;6.07;3.83;;;8.10;99.90;;;;;;4982986;28;20133;-76
2024/01/26 12:36:37;;;;;;;5.97;5.45;;;8.10;99.90;;;;;;5008683;28;20449;-74
2024/01/26 12:39:04;;;;;;;5.50;5.20;;;8.00;99.90;;;;;;4984776;28;20045;-75
2024/01/26 12:41:32;;;;;;;6.57;6.07;;;7.90;99.90;;;;;;5003286;28;20048;-75
2024/01/26 12:44:00;;;;;;;6.65;6.20;;;7.90;99.90;;;;;;5003319;28;20497;-76
2024/01/26 12:46:28;;;;;;;5.47;5.18;;;7.80;99.90;;;;;;4998730;28;20549;-75
2024/01/26 12:48:54;;;;;;;5.80;5.45;;;7.90;99.90;;;;;;5005543;28;20040;-75